Time;durP1;ratioP1;P1;durP2;ratioP2;P2;SDS_P1;SDS_P2;PMS_P1;PMS_P2;Temp;Humidity;BMP_temperature;BMP_pressure;BME280_temperature;BME280_humidity;BME280_pressure;Samples;Min_cycle;Max_cycle;Signal;HPM_P1;HPM_P2
2022/01/24 00:00:18;;;;;;;23.80;10.15;;;;;;;-5.20;71.87;102066.00;4501634;31;20413;-71
2022/01/24 00:02:45;;;;;;;23.12;9.80;;;;;;;-5.15;70.92;102060.47;4501635;31;20148;-71
2022/01/24 00:05:13;;;;;;;26.70;9.88;;;;;;;-5.20;71.08;102061.75;4501838;31;20115;-71
2022/01/24 00:07:40;;;;;;;21.10;9.18;;;;;;;-5.21;71.54;102053.94;4501773;31;20087;-71
2022/01/24 00:10:13;;;;;;;23.65;9.75;;;;;;;-5.19;71.19;102058.44;4501693;31;20091;-71
2022/01/24 00:12:53;;;;;;;25.27;10.90;;;;;;;-5.17;70.78;102054.28;4501670;31;20087;-71
2022/01/24 00:18:09;;;;;;;21.92;10.40;;;;;;;-5.14;70.18;102067.37;4501718;31;20087;-71
2022/01/24 00:29:05;;;;;;;31.17;15.18;;;;;;;-6.05;76.42;102081.50;4482299;31;20076;-71
2022/01/24 00:31:33;;;;;;;29.20;12.82;;;;;;;-5.76;74.87;102078.69;4501431;31;20099;-71
2022/01/24 00:34:00;;;;;;;26.12;10.95;;;;;;;-5.83;74.65;102082.47;4501363;31;20130;-71
2022/01/24 00:36:27;;;;;;;25.62;10.85;;;;;;;-5.86;74.55;102084.78;4501384;31;20168;-71
2022/01/24 00:38:55;;;;;;;27.60;10.93;;;;;;;-5.91;75.19;102086.06;4501408;31;20114;-71
2022/01/24 00:41:23;;;;;;;21.25;10.25;;;;;;;-5.78;74.24;102078.59;4501525;31;20109;-71
2022/01/24 00:46:33;;;;;;;21.65;10.02;;;;;;;-5.96;75.00;102097.66;4501571;31;20392;-71
2022/01/24 00:57:06;;;;;;;29.52;13.32;;;;;;;-6.14;76.04;102093.59;4501288;31;20646;-71
2022/01/24 00:59:33;;;;;;;29.75;11.75;;;;;;;-5.78;74.27;102087.97;4501026;31;20443;-71
2022/01/24 01:02:00;;;;;;;20.80;10.25;;;;;;;-5.73;73.73;102086.66;4501208;31;20522;-71
2022/01/24 01:04:38;;;;;;;22.62;10.13;;;;;;;-5.66;73.19;102090.59;4501185;31;20116;-71
2022/01/24 01:07:07;;;;;;;22.37;10.63;;;;;;;-5.67;72.90;102089.72;4501161;31;20145;-71
2022/01/24 01:18:14;;;;;;;24.33;9.95;;;;;;;-5.89;73.56;102070.81;4501047;31;20121;-71
2022/01/24 01:23:30;;;;;;;20.65;8.55;;;;;;;-5.62;72.07;102067.91;4501119;31;20094;-71
2022/01/24 01:26:02;;;;;;;17.12;8.50;;;;;;;-5.89;73.13;102076.81;4500746;31;20087;-71
2022/01/24 01:28:31;;;;;;;22.33;8.13;;;;;;;-6.00;73.22;102090.50;4500902;31;20099;-71
2022/01/24 01:31:04;;;;;;;24.25;9.27;;;;;;;-5.96;72.76;102083.94;4500772;31;20088;-71
2022/01/24 01:54:53;;;;;;;21.90;9.43;;;;;;;-6.40;74.96;102084.63;4502914;31;20088;-71
2022/01/24 01:57:22;;;;;;;21.55;8.55;;;;;;;-6.42;75.14;102082.72;4502715;31;20092;-71
2022/01/24 01:59:50;;;;;;;16.00;9.10;;;;;;;-6.37;75.12;102081.41;4502562;31;20092;-71
2022/01/24 02:02:17;;;;;;;20.45;9.10;;;;;;;-6.05;73.78;102091.78;4502919;31;20114;-71
2022/01/24 02:04:44;;;;;;;14.77;8.05;;;;;;;-6.13;73.52;102082.56;4502562;31;20477;-71
2022/01/24 02:07:13;;;;;;;21.73;9.05;;;;;;;-6.30;73.46;102092.31;4502532;31;20174;-71
2022/01/24 02:09:43;;;;;;;18.40;7.93;;;;;;;-6.28;73.17;102093.34;4502670;31;20510;-71
2022/01/24 02:12:12;;;;;;;16.65;8.70;;;;;;;-6.17;72.12;102095.91;4502607;31;20148;-71
2022/01/24 02:14:46;;;;;;;19.48;8.38;;;;;;;-6.05;71.55;102094.34;4502571;31;20119;-71
2022/01/24 02:17:20;;;;;;;19.67;8.32;;;;;;;-6.18;72.10;102094.09;4502449;31;20469;-71
2022/01/24 02:22:49;;;;;;;17.77;8.20;;;;;;;-6.74;76.53;102094.63;4502501;31;20114;-71
2022/01/24 02:25:26;;;;;;;16.55;8.15;;;;;;;-6.94;77.65;102093.69;4502533;31;20088;-71
2022/01/24 02:28:00;;;;;;;15.23;8.43;;;;;;;-6.36;74.80;102091.81;4502713;31;20173;-71
2022/01/24 02:33:14;;;;;;;15.55;8.40;;;;;;;-6.36;73.38;102098.59;4502590;31;20541;-71
2022/01/24 02:35:41;;;;;;;19.02;8.68;;;;;;;-6.63;74.71;102098.09;4502355;31;20155;-71
2022/01/24 02:38:13;;;;;;;17.35;8.82;;;;;;;-6.62;74.01;102112.69;4502341;31;20503;-71
2022/01/24 02:40:41;;;;;;;16.98;9.45;;;;;;;-6.41;72.91;102115.28;4502344;31;20154;-71
2022/01/24 02:48:47;;;;;;;20.95;10.25;;;;;;;-6.52;74.14;102096.44;4477333;31;20139;-71
2022/01/24 02:53:46;;;;;;;16.27;8.55;;;;;;;-7.31;79.04;102111.91;4502438;31;20102;-71
2022/01/24 02:56:13;;;;;;;17.45;8.07;;;;;;;-7.04;77.61;102100.56;4502160;31;20535;-71
2022/01/24 02:58:41;;;;;;;20.60;9.43;;;;;;;-6.83;76.91;102106.66;4502109;31;20178;-71
2022/01/24 03:01:08;;;;;;;17.67;8.80;;;;;;;-6.46;75.04;102107.22;4502083;31;20091;-70
2022/01/24 03:03:37;;;;;;;22.62;9.77;;;;;;;-6.22;73.69;102099.75;4502227;31;20088;-71
2022/01/24 03:06:05;;;;;;;24.87;9.63;;;;;;;-6.53;74.29;102100.66;4502145;31;20134;-71
2022/01/24 03:08:33;;;;;;;22.90;9.88;;;;;;;-6.50;74.31;102100.03;4502081;31;20088;-71
2022/01/24 03:11:00;;;;;;;18.55;9.15;;;;;;;-6.46;74.36;102106.31;4502081;31;20754;-71
2022/01/24 03:15:57;;;;;;;21.02;9.60;;;;;;;-6.68;74.52;102104.47;4502054;31;20095;-71
2022/01/24 03:18:25;;;;;;;23.98;10.50;;;;;;;-6.88;75.36;102110.50;4502054;31;20440;-71
2022/01/24 03:20:53;;;;;;;19.10;10.00;;;;;;;-6.89;75.59;102112.91;4501931;31;20119;-71
2022/01/24 03:23:23;;;;;;;19.12;8.63;;;;;;;-6.82;74.92;102113.59;4502053;31;20087;-71
2022/01/24 03:25:51;;;;;;;23.17;9.45;;;;;;;-6.78;74.64;102127.56;4501959;31;20500;-71
2022/01/24 03:28:22;;;;;;;23.65;9.60;;;;;;;-6.78;74.53;102130.12;4501969;31;20091;-71
2022/01/24 03:30:49;;;;;;;17.95;8.48;;;;;;;-6.92;74.83;102125.50;4501785;31;20545;-71
2022/01/24 03:33:17;;;;;;;20.23;9.70;;;;;;;-6.71;74.05;102129.88;4501923;31;20507;-71
2022/01/24 03:35:45;;;;;;;21.60;9.45;;;;;;;-6.88;75.15;102133.56;4502016;31;20092;-71
2022/01/24 03:38:13;;;;;;;19.87;9.65;;;;;;;-6.97;75.94;102137.88;4501856;31;20104;-71
2022/01/24 03:40:41;;;;;;;22.00;9.85;;;;;;;-6.82;74.88;102131.53;4501791;31;20098;-71
2022/01/24 03:43:09;;;;;;;22.20;10.30;;;;;;;-6.94;76.37;102139.81;4501885;31;20084;-71
2022/01/24 03:45:48;;;;;;;22.48;9.70;;;;;;;-7.25;78.28;102132.91;4501744;31;20092;-71
2022/01/24 03:51:14;;;;;;;25.27;10.00;;;;;;;-7.87;82.66;102135.94;4488384;31;20519;-71
2022/01/24 03:53:43;;;;;;;26.10;10.45;;;;;;;-7.81;82.51;102144.19;4501813;31;20083;-71
2022/01/24 03:56:11;;;;;;;21.92;9.52;;;;;;;-7.56;80.83;102138.66;4501001;31;20092;-71
2022/01/24 03:58:38;;;;;;;18.27;8.30;;;;;;;-7.59;81.00;102143.53;4501719;31;20123;-71
2022/01/24 04:01:08;;;;;;;21.85;10.02;;;;;;;-7.38;79.68;102139.41;4501680;31;20119;-71
2022/01/24 04:03:37;;;;;;;22.15;9.80;;;;;;;-7.10;77.84;102132.44;4501668;31;20110;-71
2022/01/24 04:06:05;;;;;;;22.35;10.88;;;;;;;-6.91;76.25;102124.72;4501821;31;20106;-71
2022/01/24 04:08:33;;;;;;;21.35;10.35;;;;;;;-6.92;76.12;102134.06;4501614;31;20083;-70
2022/01/24 04:11:01;;;;;;;20.52;10.25;;;;;;;-7.03;75.94;102140.81;4501694;31;20175;-70
2022/01/24 04:13:38;;;;;;;23.55;10.18;;;;;;;-7.12;76.86;102154.50;4501629;31;20080;-70
2022/01/24 04:26:27;;;;;;;24.60;10.77;;;;;;;-8.03;82.36;102149.00;4501765;31;20151;-70
2022/01/24 04:28:55;;;;;;;26.92;11.38;;;;;;;-8.05;83.23;102158.22;4501778;31;20492;-70
2022/01/24 04:31:23;;;;;;;24.37;10.43;;;;;;;-7.58;80.80;102156.47;4501638;31;20592;-70
2022/01/24 04:33:50;;;;;;;20.58;10.68;;;;;;;-7.64;80.92;102155.91;4501708;31;20127;-70
2022/01/24 04:36:18;;;;;;;23.90;10.25;;;;;;;-7.59;79.87;102169.13;4501846;31;20128;-70
2022/01/24 04:38:48;;;;;;;23.38;10.75;;;;;;;-7.25;78.77;102168.78;4501674;31;20448;-70
2022/01/24 04:41:20;;;;;;;25.90;11.38;;;;;;;-8.09;83.74;102171.50;4501575;31;20122;-71
2022/01/24 04:54:41;;;;;;;22.92;11.12;;;;;;;-7.96;81.86;102179.50;4476072;31;20481;-70
2022/01/24 04:57:14;;;;;;;25.52;11.63;;;;;;;-7.97;81.31;102184.50;4501430;31;20118;-71
2022/01/24 04:59:44;;;;;;;23.83;10.38;;;;;;;-7.75;80.32;102189.87;4501515;31;20088;-71
2022/01/24 05:02:11;;;;;;;21.65;10.95;;;;;;;-7.55;78.63;102187.47;4501493;31;20178;-70
2022/01/24 05:04:39;;;;;;;20.05;10.07;;;;;;;-7.30;77.31;102187.06;4501361;31;20402;-71
2022/01/24 05:07:06;;;;;;;22.85;10.10;;;;;;;-7.21;77.31;102195.56;4500987;31;20140;-71
2022/01/24 05:09:39;;;;;;;22.70;10.35;;;;;;;-7.18;76.42;102188.12;4501231;31;20463;-71
2022/01/24 05:12:26;;;;;;;24.12;11.30;;;;;;;-7.14;76.25;102194.44;4499149;31;20160;-71
2022/01/24 05:26:11;;;;;;;28.05;11.82;;;;;;;-7.23;76.65;102203.13;4466378;31;20586;-71
2022/01/24 05:28:38;;;;;;;24.35;11.85;;;;;;;-7.90;79.32;102204.75;4484890;31;20130;-71
2022/01/24 05:31:05;;;;;;;26.48;12.27;;;;;;;-7.86;79.98;102206.81;4484945;31;20403;-71
2022/01/24 05:33:33;;;;;;;26.92;12.70;;;;;;;-7.53;78.24;102201.28;4484048;31;20096;-71
2022/01/24 05:36:02;;;;;;;24.30;12.48;;;;;;;-7.36;77.00;102214.69;4484899;31;20452;-71
2022/01/24 05:38:29;;;;;;;27.17;12.80;;;;;;;-7.61;77.41;102206.47;4484791;31;20140;-71
2022/01/24 05:41:02;;;;;;;25.58;12.13;;;;;;;-7.87;78.22;102216.94;4484661;31;20171;-71
2022/01/24 05:43:29;;;;;;;31.12;14.60;;;;;;;-7.90;78.71;102217.53;4485127;31;20605;-71
2022/01/24 05:45:56;;;;;;;32.10;15.63;;;;;;;-7.65;78.18;102212.09;4484889;31;20118;-71
2022/01/24 05:48:24;;;;;;;38.63;15.98;;;;;;;-8.32;82.21;102219.59;4484735;31;20199;-73
2022/01/24 05:50:51;;;;;;;31.08;14.70;;;;;;;-8.59;84.97;102217.94;4484916;31;20479;-72
2022/01/24 05:53:18;;;;;;;29.30;13.77;;;;;;;-8.44;84.04;102211.75;4484840;31;20127;-71
2022/01/24 05:55:45;;;;;;;26.80;14.05;;;;;;;-7.97;80.93;102230.53;4484716;31;20479;-71
2022/01/24 05:58:12;;;;;;;28.52;12.90;;;;;;;-7.76;79.26;102224.81;4484560;31;20123;-71
2022/01/24 06:00:39;;;;;;;29.20;12.90;;;;;;;-7.88;78.89;102225.34;4484550;31;20115;-71
2022/01/24 06:03:07;;;;;;;26.83;12.45;;;;;;;-7.67;78.07;102234.97;4484649;31;20104;-71
2022/01/24 06:05:34;;;;;;;27.58;12.18;;;;;;;-7.92;79.85;102236.97;4484129;31;20122;-71
2022/01/24 06:08:02;;;;;;;23.80;12.23;;;;;;;-7.98;79.99;102236.41;4484834;31;20436;-71
2022/01/24 06:10:29;;;;;;;31.02;13.48;;;;;;;-7.84;79.12;102238.59;4484479;31;20084;-71
2022/01/24 06:12:57;;;;;;;27.00;12.45;;;;;;;-7.54;78.11;102240.44;4484110;31;20104;-71
2022/01/24 06:15:24;;;;;;;26.50;13.30;;;;;;;-7.64;77.85;102245.50;4484515;31;20151;-71
2022/01/24 06:17:51;;;;;;;34.97;14.13;;;;;;;-7.66;77.70;102243.56;4499212;31;20103;-71
2022/01/24 06:20:18;;;;;;;24.45;11.98;;;;;;;-7.75;78.58;102243.63;4501419;31;20508;-71
2022/01/24 06:22:46;;;;;;;27.40;12.05;;;;;;;-7.80;78.66;102256.00;4501837;31;20131;-71
2022/01/24 06:25:20;;;;;;;23.17;12.52;;;;;;;-7.72;77.97;102243.91;4502468;31;20491;-71
2022/01/24 06:27:47;;;;;;;26.17;11.52;;;;;;;-7.58;77.15;102260.53;4502379;31;20072;-71
2022/01/24 06:30:14;;;;;;;24.45;11.25;;;;;;;-7.53;76.39;102262.72;4502295;31;20099;-71
2022/01/24 06:32:41;;;;;;;23.73;11.73;;;;;;;-7.24;76.09;102259.34;4501969;31;20100;-71
2022/01/24 06:35:11;;;;;;;25.08;11.40;;;;;;;-7.05;75.31;102272.12;4501262;31;20135;-71
2022/01/24 06:37:39;;;;;;;24.15;11.30;;;;;;;-7.43;76.68;102264.44;4502304;31;20091;-71
2022/01/24 06:40:09;;;;;;;22.70;10.93;;;;;;;-7.46;76.80;102262.50;4501566;31;20126;-71
2022/01/24 06:42:38;;;;;;;24.05;10.32;;;;;;;-7.34;76.35;102266.97;4502182;31;20108;-71
2022/01/24 06:45:07;;;;;;;23.38;10.63;;;;;;;-7.66;78.41;102264.94;4502354;31;20514;-71
2022/01/24 06:47:35;;;;;;;22.90;11.27;;;;;;;-7.30;76.89;102272.47;4502412;31;20084;-71
2022/01/24 06:50:04;;;;;;;27.25;11.43;;;;;;;-7.24;75.93;102285.84;4501935;31;20111;-71
2022/01/24 06:52:31;;;;;;;26.30;13.15;;;;;;;-7.19;75.25;102288.81;4502547;31;20113;-71
2022/01/24 06:54:58;;;;;;;53.92;24.73;;;;;;;-7.16;75.50;102296.78;4502453;31;20076;-71
2022/01/24 06:57:25;;;;;;;39.15;19.33;;;;;;;-7.30;76.24;102289.50;4501546;31;20103;-73
2022/01/24 06:59:53;;;;;;;39.05;19.35;;;;;;;-7.29;76.05;102297.31;4500995;31;20405;-74
2022/01/24 07:02:20;;;;;;;37.22;17.15;;;;;;;-7.09;75.24;102296.56;4501629;31;20126;-72
2022/01/24 07:04:47;;;;;;;37.85;15.85;;;;;;;-6.77;74.23;102311.34;4500500;31;20438;-71
2022/01/24 07:07:19;;;;;;;34.35;15.07;;;;;;;-6.69;74.46;102307.78;4500799;31;20171;-71
2022/01/24 07:09:46;;;;;;;28.85;13.30;;;;;;;-6.68;74.60;102307.00;4501780;31;20137;-71
2022/01/24 07:12:14;;;;;;;30.90;13.48;;;;;;;-6.55;73.87;102307.31;4501417;31;20092;-71
2022/01/24 07:14:42;;;;;;;29.23;13.13;;;;;;;-6.38;73.76;102310.47;4502067;31;20092;-71
2022/01/24 07:17:45;;;;;;;23.87;12.48;;;;;;;-6.45;74.36;102313.25;4502496;31;20087;-71
2022/01/24 07:19:57;;;;;;;30.40;12.98;;;;;;;-6.34;73.78;102317.66;4502492;31;20485;-71
2022/01/24 07:22:24;;;;;;;29.20;12.65;;;;;;;-6.19;73.13;102307.81;4502890;31;20168;-71
2022/01/24 07:24:51;;;;;;;28.87;13.70;;;;;;;-5.94;72.35;102306.56;4503096;31;20110;-72
2022/01/24 07:27:18;;;;;;;35.10;13.98;;;;;;;-5.91;72.56;102313.59;4502184;31;20129;-71
2022/01/24 07:29:46;;;;;;;34.13;13.45;;;;;;;-5.93;73.08;102328.91;4501795;31;20156;-71
2022/01/24 07:32:13;;;;;;;35.38;13.90;;;;;;;-5.82;73.25;102337.50;4502156;31;20104;-71
2022/01/24 07:34:40;;;;;;;28.48;12.23;;;;;;;-5.59;72.90;102334.28;4501939;31;20204;-71
2022/01/24 07:37:07;;;;;;;31.35;14.18;;;;;;;-5.49;72.83;102339.44;4502040;31;20092;-71
2022/01/24 07:39:35;;;;;;;30.25;14.07;;;;;;;-5.33;72.73;102342.53;4501964;31;20126;-71
2022/01/24 07:42:16;;;;;;;36.15;14.85;;;;;;;-5.04;71.23;102349.19;4501665;31;20083;-71
2022/01/24 07:44:44;;;;;;;43.53;18.27;;;;;;;-4.94;70.93;102348.25;4501694;31;20151;-71
2022/01/24 07:47:12;;;;;;;49.80;21.12;;;;;;;-4.97;71.01;102354.03;4500229;31;20103;-71
2022/01/24 07:49:39;;;;;;;62.75;25.48;;;;;;;-4.77;71.09;102359.91;4500330;31;20178;-71
2022/01/24 07:52:06;;;;;;;52.10;22.65;;;;;;;-4.63;71.05;102356.78;4485391;31;20191;-71
2022/01/24 07:54:34;;;;;;;60.63;25.67;;;;;;;-4.61;72.10;102358.69;4500603;31;20162;-71
2022/01/24 07:57:01;;;;;;;64.47;24.65;;;;;;;-4.44;70.79;102365.22;4500164;31;20118;-71
2022/01/24 07:59:28;;;;;;;76.72;30.95;;;;;;;-4.35;71.23;102368.53;4500391;31;20096;-71
2022/01/24 08:01:55;;;;;;;67.30;25.80;;;;;;;-4.38;71.22;102365.72;4500282;31;20175;-71
2022/01/24 08:04:23;;;;;;;68.35;26.92;;;;;;;-4.21;70.08;102373.84;4500021;31;20087;-71
2022/01/24 08:06:50;;;;;;;63.15;22.42;;;;;;;-4.24;70.17;102369.37;4501864;31;20096;-71
2022/01/24 08:09:17;;;;;;;53.72;20.95;;;;;;;-3.97;68.76;102365.50;4501650;31;20096;-71
2022/01/24 08:11:45;;;;;;;50.33;19.33;;;;;;;-3.75;67.88;102368.06;4501399;31;20121;-71
2022/01/24 08:14:12;;;;;;;41.25;14.75;;;;;;;-3.73;68.10;102366.50;4502191;31;20076;-71
2022/01/24 08:16:40;;;;;;;37.47;13.30;;;;;;;-3.70;68.73;102364.16;4502670;31;20540;-71
2022/01/24 08:19:07;;;;;;;35.70;14.90;;;;;;;-3.75;69.55;102367.16;4500978;31;20115;-71
2022/01/24 08:21:34;;;;;;;38.85;16.55;;;;;;;-3.53;68.59;102372.28;4499041;31;20095;-71
2022/01/24 08:24:02;;;;;;;48.03;17.87;;;;;;;-3.29;68.16;102370.69;4501633;31;20502;-71
2022/01/24 08:26:29;;;;;;;54.53;21.10;;;;;;;-3.25;67.98;102380.44;4501469;31;20738;-72
2022/01/24 08:28:57;;;;;;;46.50;19.90;;;;;;;-3.23;68.69;102377.19;4501645;31;20080;-71
2022/01/24 08:31:24;;;;;;;48.08;18.40;;;;;;;-3.16;68.92;102383.72;4501460;31;20127;-71
2022/01/24 08:33:51;;;;;;;50.47;19.12;;;;;;;-3.17;69.22;102389.66;4501798;31;20073;-71
2022/01/24 08:36:19;;;;;;;52.03;20.25;;;;;;;-2.90;68.25;102377.94;4501933;31;20096;-71
2022/01/24 08:38:49;;;;;;;49.33;17.85;;;;;;;-2.55;67.14;102384.78;4501467;31;20150;-74
2022/01/24 08:41:42;;;;;;;41.05;15.32;;;;;;;-2.55;67.43;102384.78;4498796;31;20402;-72
2022/01/24 08:44:20;;;;;;;37.75;14.73;;;;;;;-2.35;66.76;102387.16;4501467;31;20087;-71
2022/01/24 08:46:48;;;;;;;38.45;14.95;;;;;;;-2.30;65.46;102380.62;4498863;31;20096;-71
2022/01/24 08:49:16;;;;;;;34.30;11.70;;;;;;;-2.25;65.21;102384.44;4499779;31;20095;-71
2022/01/24 08:51:43;;;;;;;23.58;9.00;;;;;;;-2.07;64.32;102390.03;4500006;31;20451;-71
2022/01/24 08:54:30;;;;;;;15.57;6.57;;;;;;;-1.86;62.96;102385.47;4501235;31;20083;-71
2022/01/24 08:56:57;;;;;;;14.68;6.28;;;;;;;-1.73;59.95;102387.25;4486403;31;20104;-71
2022/01/24 08:59:25;;;;;;;17.77;5.78;;;;;;;-1.59;59.02;102389.09;4501458;31;20168;-71
2022/01/24 09:01:52;;;;;;;10.07;5.43;;;;;;;-1.38;58.32;102396.50;4500387;31;20390;-71
2022/01/24 09:04:20;;;;;;;13.57;5.93;;;;;;;-1.24;57.69;102385.41;4486384;31;20148;-71
2022/01/24 09:06:47;;;;;;;21.12;7.50;;;;;;;-1.24;57.44;102390.59;4501075;31;20091;-71
2022/01/24 09:09:15;;;;;;;16.33;7.22;;;;;;;-1.20;57.09;102390.03;4501102;31;20104;-71
2022/01/24 09:11:43;;;;;;;9.55;4.80;;;;;;;-1.04;57.20;102397.13;4501114;31;20116;-71
2022/01/24 09:14:10;;;;;;;15.00;4.35;;;;;;;-0.94;55.39;102393.47;4501196;31;20083;-71
2022/01/24 09:16:38;;;;;;;11.80;4.93;;;;;;;-0.85;55.44;102396.66;4501205;31;20091;-71
2022/01/24 09:19:06;;;;;;;22.15;4.75;;;;;;;-0.87;54.48;102388.81;4500716;31;20159;-71
2022/01/24 09:21:36;;;;;;;8.38;4.82;;;;;;;-0.72;53.74;102396.69;4500609;31;20096;-71
2022/01/24 09:24:05;;;;;;;9.80;4.47;;;;;;;-0.70;54.64;102402.87;4501182;31;20146;-71
2022/01/24 09:26:32;;;;;;;7.78;3.85;;;;;;;-0.57;54.62;102401.97;4500830;31;20449;-71
2022/01/24 09:28:59;;;;;;;8.13;4.20;;;;;;;-0.46;53.79;102398.38;4500803;31;20126;-71
2022/01/24 09:31:27;;;;;;;10.98;4.12;;;;;;;-0.53;53.27;102402.28;4500764;31;20163;-71
2022/01/24 09:33:55;;;;;;;10.75;5.10;;;;;;;-0.34;53.06;102399.19;4500542;31;20126;-71
2022/01/24 09:36:22;;;;;;;7.10;4.30;;;;;;;-0.07;52.39;102401.72;4500463;31;20102;-71
2022/01/24 09:38:50;;;;;;;10.88;5.20;;;;;;;0.03;51.81;102391.16;4501181;31;20096;-71
2022/01/24 09:41:18;;;;;;;9.23;4.32;;;;;;;0.04;51.89;102395.56;4500825;31;20095;-71
2022/01/24 09:43:45;;;;;;;14.35;5.15;;;;;;;0.14;51.17;102392.75;4500602;31;20435;-71
2022/01/24 09:46:13;;;;;;;15.40;4.85;;;;;;;0.33;51.15;102388.69;4500615;31;20482;-71
2022/01/24 09:48:41;;;;;;;9.70;4.55;;;;;;;0.40;51.58;102389.16;4500248;31;20096;-72
2022/01/24 09:51:09;;;;;;;9.50;4.43;;;;;;;0.40;51.05;102389.16;4501204;31;20131;-71
2022/01/24 09:53:37;;;;;;;6.50;3.85;;;;;;;0.68;51.63;102383.97;4500940;31;20161;-74
2022/01/24 09:56:05;;;;;;;10.55;4.70;;;;;;;0.88;49.79;102387.75;4502692;31;20861;-72
2022/01/24 09:58:35;;;;;;;10.10;4.05;;;;;;;0.80;48.23;102385.50;4501420;31;20522;-72
2022/01/24 10:01:07;;;;;;;9.85;4.28;;;;;;;0.93;48.99;102386.31;4500913;31;20111;-72
2022/01/24 10:03:36;;;;;;;10.95;4.50;;;;;;;1.01;48.13;102385.87;4501519;31;20154;-72
2022/01/24 10:06:11;;;;;;;15.25;4.60;;;;;;;1.10;48.39;102392.50;4502454;31;20103;-72
2022/01/24 10:08:38;;;;;;;12.65;4.40;;;;;;;1.28;47.99;102394.38;4502255;31;20159;-72
2022/01/24 10:11:07;;;;;;;12.30;4.47;;;;;;;1.35;47.78;102383.53;4502830;31;20476;-72
2022/01/24 10:16:44;;;;;;;9.07;5.05;;;;;;;1.73;47.48;102383.09;4502196;31;20151;-72
2022/01/24 10:19:19;;;;;;;13.05;5.40;;;;;;;1.86;46.32;102374.28;4502331;31;20418;-72
2022/01/24 10:22:00;;;;;;;18.92;6.10;;;;;;;2.04;45.88;102375.28;4488863;31;20182;-72
2022/01/24 10:24:32;;;;;;;12.25;5.57;;;;;;;1.91;46.51;102373.75;4502601;31;20087;-72
2022/01/24 10:27:17;;;;;;;10.32;5.35;;;;;;;1.99;46.17;102371.56;4503067;31;20084;-72
2022/01/24 10:29:53;;;;;;;13.60;5.20;;;;;;;2.17;45.33;102370.78;4502313;31;20157;-72
2022/01/24 10:32:51;;;;;;;9.07;4.83;;;;;;;2.33;46.52;102373.38;4502108;31;20508;-72
2022/01/24 10:35:42;;;;;;;10.20;4.78;;;;;;;2.48;44.62;102366.41;4502359;31;20415;-72
2022/01/24 10:38:34;;;;;;;10.48;5.03;;;;;;;2.46;45.05;102373.22;4502234;31;20383;-72
2022/01/24 10:43:39;;;;;;;14.98;5.87;;;;;;;3.40;43.67;102370.19;4502420;31;20100;-72
2022/01/24 10:46:08;;;;;;;10.00;4.82;;;;;;;4.12;41.67;102364.06;4503093;31;20080;-72
2022/01/24 10:48:41;;;;;;;11.82;5.82;;;;;;;5.02;39.49;102365.47;4502235;31;20521;-72
2022/01/24 10:51:17;;;;;;;12.05;5.72;;;;;;;5.82;38.63;102352.13;4502526;31;20091;-72
2022/01/24 10:53:57;;;;;;;12.63;5.57;;;;;;;6.79;35.62;102351.41;4502723;31;20095;-73
2022/01/24 10:56:25;;;;;;;21.73;6.25;;;;;;;7.57;36.20;102360.16;4501138;31;20121;-73
2022/01/24 10:58:54;;;;;;;11.27;6.35;;;;;;;8.60;32.96;102353.66;4502186;31;20096;-73
2022/01/24 11:01:28;;;;;;;15.18;7.05;;;;;;;8.55;31.76;102350.00;4502067;31;20095;-73
2022/01/24 11:04:01;;;;;;;15.13;8.63;;;;;;;8.63;32.22;102349.34;4502395;31;20096;-73
2022/01/24 11:06:31;;;;;;;17.48;7.85;;;;;;;8.80;32.07;102353.31;4501415;31;20103;-73
2022/01/24 11:09:28;;;;;;;12.68;6.55;;;;;;;9.45;30.29;102340.94;4501456;31;20107;-73
2022/01/24 11:11:56;;;;;;;11.18;6.95;;;;;;;9.62;31.25;102353.62;4501923;31;20159;-73
2022/01/24 11:14:26;;;;;;;11.70;6.20;;;;;;;10.19;29.22;102350.50;4500772;31;20132;-73
2022/01/24 11:16:56;;;;;;;12.52;6.65;;;;;;;11.13;28.14;102340.94;4501123;31;20117;-73
2022/01/24 11:19:30;;;;;;;16.50;6.53;;;;;;;11.03;27.06;102346.03;4501584;31;20114;-73
2022/01/24 11:22:04;;;;;;;14.02;8.70;;;;;;;11.64;27.52;102349.66;4500883;31;20631;-73
2022/01/24 11:24:40;;;;;;;13.60;8.15;;;;;;;12.40;27.29;102347.19;4500439;31;20108;-73
2022/01/24 11:27:28;;;;;;;35.53;22.00;;;;;;;13.28;26.54;102341.94;4500584;31;20345;-73
2022/01/24 11:29:59;;;;;;;46.55;29.30;;;;;;;11.94;25.79;102343.94;4500602;31;20091;-73
2022/01/24 11:32:30;;;;;;;17.98;9.93;;;;;;;11.40;26.62;102345.75;4500354;31;20091;-74
2022/01/24 11:34:58;;;;;;;44.90;23.60;;;;;;;11.52;24.83;102345.09;4502141;31;20155;-74
2022/01/24 11:37:34;;;;;;;26.27;8.73;;;;;;;11.86;26.08;102341.22;4495734;31;20537;-74
2022/01/24 11:40:13;;;;;;;13.98;7.47;;;;;;;11.72;25.70;102324.25;4491221;31;20157;-74
2022/01/24 11:42:44;;;;;;;57.42;28.30;;;;;;;13.49;24.43;102327.09;4499944;31;20095;-74
2022/01/24 11:45:56;;;;;;;44.40;21.60;;;;;;;13.34;24.44;102326.13;4500455;31;20532;-74
2022/01/24 11:48:23;;;;;;;14.40;8.17;;;;;;;12.62;25.54;102324.53;4500631;31;20084;-74
2022/01/24 11:51:10;;;;;;;12.37;7.72;;;;;;;13.04;25.20;102321.44;4500430;31;20112;-74
2022/01/24 11:53:43;;;;;;;116.00;51.60;;;;;;;14.16;25.44;102318.66;4500565;31;20091;-74
2022/01/24 11:56:32;;;;;;;67.68;31.33;;;;;;;13.73;22.97;102321.09;4500550;31;20168;-74
2022/01/24 11:59:20;;;;;;;21.08;12.15;;;;;;;13.33;24.33;102308.47;4499927;31;20079;-74
2022/01/24 12:02:10;;;;;;;36.13;16.60;;;;;;;14.23;22.89;102312.50;4500160;31;20192;-74
2022/01/24 12:04:58;;;;;;;9.45;6.95;;;;;;;15.44;23.56;102315.34;4500207;31;20099;-74
2022/01/24 12:07:30;;;;;;;9.75;7.20;;;;;;;14.86;21.90;102308.28;4501550;31;20088;-74
2022/01/24 12:10:25;;;;;;;12.90;8.80;;;;;;;15.64;22.95;102304.69;4501947;31;20075;-75
2022/01/24 12:13:05;;;;;;;14.45;9.90;;;;;;;14.10;23.61;102311.56;4501691;31;20144;-74
2022/01/24 12:15:41;;;;;;;22.15;8.82;;;;;;;14.10;23.58;102306.28;4501917;31;20076;-74
2022/01/24 12:18:22;;;;;;;17.73;8.90;;;;;;;12.96;24.23;102303.69;4500929;31;20526;-74
2022/01/24 12:20:52;;;;;;;18.10;8.90;;;;;;;13.05;25.36;102299.38;4501896;31;20182;-74
2022/01/24 12:23:19;;;;;;;19.00;9.60;;;;;;;12.66;25.08;102303.44;4501839;31;20091;-74
2022/01/24 12:26:08;;;;;;;13.10;8.63;;;;;;;12.18;26.10;102309.03;4502597;31;20088;-74
2022/01/24 12:28:41;;;;;;;15.27;8.07;;;;;;;12.64;25.86;102296.34;4502390;31;20622;-74
2022/01/24 12:31:10;;;;;;;12.35;8.32;;;;;;;14.05;23.28;102289.44;4502149;31;20088;-72
2022/01/24 12:34:00;;;;;;;13.88;8.60;;;;;;;14.08;24.33;102300.06;4502663;31;20092;-72
2022/01/24 12:36:46;;;;;;;11.77;8.50;;;;;;;13.80;23.15;102304.34;4502304;31;20161;-72
2022/01/24 12:39:15;;;;;;;12.43;8.10;;;;;;;13.27;23.75;102299.59;4502268;31;20095;-72
2022/01/24 12:41:51;;;;;;;21.37;9.23;;;;;;;11.22;26.26;102305.88;4502236;31;20129;-72
2022/01/24 12:47:10;;;;;;;14.10;8.07;;;;;;;12.07;26.20;102302.75;4501545;31;20084;-72
2022/01/24 12:49:39;;;;;;;19.35;9.45;;;;;;;13.21;25.36;102291.56;4501759;31;20734;-72
2022/01/24 12:52:11;;;;;;;14.55;8.20;;;;;;;12.91;25.34;102299.25;4502128;31;20178;-72
2022/01/24 12:54:42;;;;;;;12.02;8.02;;;;;;;12.94;25.45;102294.87;4502058;31;20099;-72
2022/01/24 12:57:16;;;;;;;17.98;7.78;;;;;;;12.91;24.87;102303.66;4500748;31;20143;-72
2022/01/24 13:00:07;;;;;;;14.07;8.35;;;;;;;12.59;25.75;102295.41;4499902;31;20115;-72
2022/01/24 13:02:39;;;;;;;12.65;8.35;;;;;;;13.38;25.55;102292.59;4499933;31;20383;-72
2022/01/24 13:05:15;;;;;;;15.20;8.18;;;;;;;13.55;25.41;102288.31;4501041;31;20099;-72
2022/01/24 13:07:54;;;;;;;12.55;8.00;;;;;;;14.63;23.38;102283.44;4500932;31;20110;-72
2022/01/24 13:10:24;;;;;;;13.45;8.23;;;;;;;13.52;24.80;102284.75;4501056;31;20126;-72
2022/01/24 13:13:04;;;;;;;15.70;8.98;;;;;;;13.10;24.78;102289.69;4501103;31;20079;-72
2022/01/24 13:21:25;;;;;;;12.90;7.45;;;;;;;14.44;22.75;102285.16;4500383;31;20126;-72
2022/01/24 13:24:00;;;;;;;11.80;7.75;;;;;;;13.33;23.23;102282.00;4500734;31;20096;-72
2022/01/24 13:26:28;;;;;;;14.30;8.13;;;;;;;14.39;23.10;102276.31;4500992;31;20087;-72
2022/01/24 13:29:05;;;;;;;15.27;7.68;;;;;;;14.35;22.62;102273.66;4501908;31;20241;-72
2022/01/24 13:31:33;;;;;;;13.93;8.48;;;;;;;13.03;23.97;102276.41;4502460;31;20138;-72